createdAt,value
2018-11-25T00:00:18.640Z,0.95
2018-11-25T00:02:47.320Z,0.96
2018-11-25T00:05:15.932Z,0.93
2018-11-25T00:07:45.067Z,0.95
2018-11-25T00:10:13.979Z,0.94
2018-11-25T00:12:42.764Z,0.93
2018-11-25T00:15:12.523Z,0.97
2018-11-25T00:17:42.081Z,1.03
2018-11-25T00:20:13.218Z,1.00
2018-11-25T00:22:43.279Z,1.01
2018-11-25T00:25:13.788Z,0.99
2018-11-25T00:27:43.996Z,0.98
2018-11-25T00:30:14.962Z,1.00
2018-11-25T00:32:44.822Z,0.96
2018-11-25T00:35:16.945Z,0.94
2018-11-25T00:37:48.497Z,0.95
2018-11-25T00:40:16.394Z,1.01
2018-11-25T00:42:45.992Z,0.99
2018-11-25T00:45:18.692Z,0.95
2018-11-25T00:47:49.396Z,0.92
2018-11-25T00:50:19.482Z,0.83
2018-11-25T00:52:48.778Z,0.77
2018-11-25T00:55:18.488Z,0.72
2018-11-25T00:57:48.722Z,0.69
2018-11-25T01:00:20.014Z,0.59
2018-11-25T01:02:50.414Z,0.54
2018-11-25T01:05:19.908Z,0.46
2018-11-25T01:07:49.477Z,0.43
2018-11-25T01:10:19.093Z,0.45
2018-11-25T01:12:48.592Z,0.41
2018-11-25T01:15:18.515Z,0.37
2018-11-25T01:17:47.975Z,0.34
2018-11-25T01:20:21.043Z,0.31
2018-11-25T01:22:50.697Z,0.32
2018-11-25T01:25:20.254Z,0.26
2018-11-25T01:27:50.500Z,0.20
2018-11-25T01:30:20.703Z,0.13
2018-11-25T01:32:50.138Z,0.07
2018-11-25T01:35:19.918Z,0.00
2018-11-25T01:37:49.312Z,0.00
2018-11-25T01:40:19.639Z,0.06
2018-11-25T01:42:49.373Z,0.04
2018-11-25T01:45:18.953Z,-0.05
2018-11-25T01:47:48.235Z,-0.11
2018-11-25T01:50:18.510Z,-0.12
2018-11-25T01:52:48.662Z,-0.14
2018-11-25T01:55:19.027Z,-0.13
2018-11-25T01:57:48.575Z,-0.18
2018-11-25T02:00:22.330Z,-0.26
2018-11-25T02:02:52.257Z,-0.29
2018-11-25T02:05:22.532Z,-0.28
2018-11-25T02:07:52.753Z,-0.33
2018-11-25T02:10:22.154Z,-0.37
2018-11-25T02:12:52.022Z,-0.38
2018-11-25T02:15:21.477Z,-0.36
2018-11-25T02:17:51.402Z,-0.41
2018-11-25T02:20:25.458Z,-0.53
2018-11-25T02:22:55.937Z,-0.61
2018-11-25T02:25:26.123Z,-0.61
2018-11-25T02:27:55.910Z,-0.75
2018-11-25T02:30:25.408Z,-0.79
2018-11-25T02:32:54.677Z,-0.75
2018-11-25T02:35:24.047Z,-0.71
2018-11-25T02:37:54.067Z,-0.79
2018-11-25T02:40:23.398Z,-0.80
2018-11-25T02:42:52.789Z,-0.80
2018-11-25T02:45:22.265Z,-0.78
2018-11-25T02:47:52.819Z,-0.77
2018-11-25T02:50:29.889Z,-0.77
2018-11-25T02:53:01.133Z,-0.81
2018-11-25T02:55:31.257Z,-0.85
2018-11-25T02:58:00.931Z,-0.95
2018-11-25T03:00:30.510Z,-1.00
2018-11-25T03:03:00.171Z,-1.03
2018-11-25T03:05:30.035Z,-1.06
2018-11-25T03:08:01.353Z,-1.11
2018-11-25T03:10:30.839Z,-1.11
2018-11-25T03:13:00.695Z,-1.13
2018-11-25T03:15:30.139Z,-1.10
2018-11-25T03:17:59.707Z,-1.12
2018-11-25T03:20:29.476Z,-1.23
2018-11-25T03:22:58.897Z,-1.21
2018-11-25T03:25:28.425Z,-1.16
2018-11-25T03:27:57.808Z,-1.17
2018-11-25T03:30:28.215Z,-1.18
2018-11-25T03:32:58.277Z,-1.17
2018-11-25T03:35:28.535Z,-1.15
2018-11-25T03:37:58.818Z,-1.17
2018-11-25T03:40:28.888Z,-1.18
2018-11-25T03:42:59.092Z,-1.26
2018-11-25T03:45:29.290Z,-1.36
2018-11-25T03:47:58.662Z,-1.39
2018-11-25T03:50:28.853Z,-1.36
2018-11-25T03:52:58.198Z,-1.40
2018-11-25T03:55:27.608Z,-1.43
2018-11-25T03:57:57.392Z,-1.46
2018-11-25T04:00:26.766Z,-1.40
2018-11-25T04:02:56.080Z,-1.36
2018-11-25T04:05:26.114Z,-1.43
2018-11-25T04:07:56.215Z,-1.45
2018-11-25T04:10:26.448Z,-1.49
2018-11-25T04:12:55.830Z,-1.56
2018-11-25T04:15:25.858Z,-1.63
2018-11-25T04:17:55.247Z,-1.62
2018-11-25T04:20:24.566Z,-1.64
2018-11-25T04:22:54.217Z,-1.65
2018-11-25T04:25:23.778Z,-1.71
2018-11-25T04:27:53.210Z,-1.70
2018-11-25T04:30:22.788Z,-1.61
2018-11-25T04:32:52.460Z,-1.67
2018-11-25T04:35:21.840Z,-1.72
2018-11-25T04:37:51.508Z,-1.77
2018-11-25T04:40:20.995Z,-1.84
2018-11-25T04:42:50.407Z,-1.91
2018-11-25T04:45:20.127Z,-1.98
2018-11-25T04:47:49.665Z,-1.94
2018-11-25T04:50:19.911Z,-2.19
2018-11-25T04:52:49.384Z,-2.08
2018-11-25T04:55:19.289Z,-2.05
2018-11-25T04:57:51.508Z,-2.10
2018-11-25T05:00:20.946Z,-2.11
2018-11-25T05:02:51.899Z,-2.08
2018-11-25T05:05:21.376Z,-2.05
2018-11-25T05:07:50.907Z,-2.02
2018-11-25T05:10:20.440Z,-2.10
2018-11-25T05:12:50.639Z,-2.08
2018-11-25T05:15:20.926Z,-2.09
2018-11-25T05:17:50.640Z,-2.13
2018-11-25T05:20:20.544Z,-2.12
2018-11-25T05:22:50.431Z,-2.12
2018-11-25T05:25:20.589Z,-2.23
2018-11-25T05:27:50.724Z,-2.25
2018-11-25T05:30:21.967Z,-2.23
2018-11-25T05:32:51.490Z,-2.21
2018-11-25T05:35:22.499Z,-2.15
2018-11-25T05:37:51.784Z,-2.17
2018-11-25T05:40:21.039Z,-2.26
2018-11-25T05:42:50.284Z,-2.24
2018-11-25T05:45:20.615Z,-2.25
2018-11-25T05:47:50.629Z,-2.26
2018-11-25T05:50:20.270Z,-2.23
2018-11-25T05:52:50.570Z,-2.28
2018-11-25T05:55:20.088Z,-2.27
2018-11-25T05:57:49.504Z,-2.27
2018-11-25T06:00:22.666Z,-2.15
2018-11-25T06:02:52.349Z,-2.13
2018-11-25T06:05:21.943Z,-2.10
2018-11-25T06:07:51.378Z,-2.17
2018-11-25T06:10:20.942Z,-2.26
2018-11-25T06:12:51.650Z,-2.32
2018-11-25T06:15:21.660Z,-2.30
2018-11-25T06:17:51.676Z,-2.31
2018-11-25T06:20:21.194Z,-2.30
2018-11-25T06:22:51.608Z,-2.24
2018-11-25T06:25:21.898Z,-2.31
2018-11-25T06:27:51.759Z,-2.29
2018-11-25T06:30:21.854Z,-2.30
2018-11-25T06:32:51.913Z,-2.32
2018-11-25T06:35:21.299Z,-2.33
2018-11-25T06:37:50.764Z,-2.36
2018-11-25T06:40:21.404Z,-2.46
2018-11-25T06:42:50.980Z,-2.46
2018-11-25T06:45:25.099Z,-2.42
2018-11-25T06:47:55.230Z,-2.40
2018-11-25T06:50:24.668Z,-2.45
2018-11-25T06:52:54.662Z,-2.41
2018-11-25T06:55:24.016Z,-2.39
2018-11-25T06:57:55.930Z,-2.33
2018-11-25T07:00:26.449Z,-2.36
2018-11-25T07:02:56.418Z,-2.37
2018-11-25T07:05:25.758Z,-2.33
2018-11-25T07:07:55.108Z,-2.25
2018-11-25T07:10:24.806Z,-2.22
2018-11-25T07:12:55.288Z,-2.24
2018-11-25T07:15:24.880Z,-2.38
2018-11-25T07:17:54.813Z,-2.30
2018-11-25T07:20:24.183Z,-2.28
2018-11-25T07:22:54.289Z,-2.17
2018-11-25T07:25:23.948Z,-2.09
2018-11-25T07:27:53.505Z,-2.02
2018-11-25T07:30:26.856Z,-1.91
2018-11-25T07:32:56.890Z,-1.80
2018-11-25T07:35:28.251Z,-1.69
2018-11-25T07:37:58.315Z,-1.60
2018-11-25T07:40:27.893Z,-1.49
2018-11-25T07:42:57.671Z,-1.44
2018-11-25T07:45:30.548Z,-1.37
2018-11-25T07:47:58.174Z,-1.25
2018-11-25T07:50:27.579Z,-1.14
2018-11-25T07:52:57.504Z,-1.13
2018-11-25T07:55:27.060Z,-1.13
2018-11-25T07:57:58.830Z,-0.93
2018-11-25T08:00:28.981Z,-0.80
2018-11-25T08:02:59.307Z,-0.66
2018-11-25T08:05:29.689Z,-0.52
2018-11-25T08:07:59.644Z,-0.44
2018-11-25T08:10:29.120Z,-0.34
2018-11-25T08:12:59.185Z,-0.22
2018-11-25T08:15:29.347Z,-0.03
2018-11-25T08:17:59.656Z,0.31
2018-11-25T08:20:30.590Z,0.62
2018-11-25T08:22:59.984Z,1.00
2018-11-25T08:25:29.843Z,1.41
2018-11-25T08:27:59.285Z,1.41
2018-11-25T08:30:29.459Z,1.39
2018-11-25T08:32:58.903Z,1.38
2018-11-25T08:35:28.886Z,1.46
2018-11-25T08:37:59.634Z,1.60
2018-11-25T08:40:29.554Z,1.60
2018-11-25T08:42:59.746Z,1.51
2018-11-25T08:45:29.790Z,1.70
2018-11-25T08:47:59.763Z,1.61
2018-11-25T08:50:30.371Z,1.75
2018-11-25T08:53:00.192Z,1.73
2018-11-25T08:55:30.774Z,1.80
2018-11-25T08:58:00.642Z,1.78
2018-11-25T09:00:30.965Z,1.99
2018-11-25T09:03:01.269Z,2.28
2018-11-25T09:05:31.875Z,2.68
2018-11-25T09:08:02.515Z,2.92
2018-11-25T09:10:32.678Z,3.11
2018-11-25T09:13:02.610Z,3.38
2018-11-25T09:15:33.632Z,3.79
2018-11-25T09:18:05.140Z,4.44
2018-11-25T09:20:34.930Z,5.06
2018-11-25T09:23:04.827Z,5.58
2018-11-25T09:25:34.985Z,6.15
2018-11-25T09:28:05.055Z,6.73
2018-11-25T09:30:35.404Z,7.32
2018-11-25T09:33:05.547Z,7.49
2018-11-25T09:35:36.221Z,7.67
2018-11-25T09:38:06.166Z,6.95
2018-11-25T09:40:36.039Z,7.35
2018-11-25T09:43:06.397Z,7.47
2018-11-25T09:45:37.472Z,7.62
2018-11-25T09:48:07.751Z,8.78
2018-11-25T09:50:37.221Z,8.98
2018-11-25T09:53:06.985Z,8.91
2018-11-25T09:55:36.744Z,9.02
2018-11-25T09:58:06.470Z,9.39
2018-11-25T10:00:37.164Z,10.04
2018-11-25T10:03:07.803Z,10.44
2018-11-25T10:05:38.089Z,11.25
2018-11-25T10:08:07.990Z,12.10
2018-11-25T10:10:37.563Z,12.87
2018-11-25T10:13:07.222Z,13.15
2018-11-25T10:15:36.725Z,13.01
2018-11-25T10:18:06.635Z,13.32
2018-11-25T10:20:36.242Z,13.54
2018-11-25T10:23:05.913Z,14.59
2018-11-25T10:25:35.702Z,15.36
2018-11-25T10:28:05.948Z,16.08
2018-11-25T10:30:35.984Z,16.16
2018-11-25T10:33:08.178Z,16.58
2018-11-25T10:35:37.539Z,15.22
2018-11-25T10:38:07.523Z,15.72
2018-11-25T10:40:37.148Z,16.17
2018-11-25T10:43:06.900Z,16.99
2018-11-25T10:45:37.359Z,16.57
2018-11-25T10:48:08.640Z,16.88
2018-11-25T10:50:38.585Z,16.99
2018-11-25T10:53:09.023Z,18.16
2018-11-25T10:55:39.026Z,19.37
2018-11-25T10:58:09.278Z,19.68
2018-11-25T11:00:44.139Z,20.39
2018-11-25T11:03:20.396Z,20.32
2018-11-25T11:05:54.637Z,21.31
2018-11-25T11:08:26.561Z,21.45
2018-11-25T11:10:57.086Z,21.97
2018-11-25T11:13:27.086Z,22.47
2018-11-25T11:15:57.274Z,23.60
2018-11-25T11:18:27.849Z,23.86
2018-11-25T11:20:58.204Z,23.83
2018-11-25T11:23:27.796Z,24.76
2018-11-25T11:25:57.988Z,25.01
2018-11-25T11:28:28.098Z,24.73
2018-11-25T11:30:58.397Z,24.74
2018-11-25T11:33:27.834Z,25.15
2018-11-25T11:35:57.950Z,25.76
2018-11-25T11:38:27.588Z,26.34
2018-11-25T11:40:57.319Z,26.03
2018-11-25T11:43:27.380Z,25.94
2018-11-25T11:45:57.737Z,26.06
2018-11-25T11:48:27.780Z,25.13
2018-11-25T11:50:57.829Z,24.77
2018-11-25T11:53:27.411Z,23.97
2018-11-25T11:55:56.942Z,23.58
2018-11-25T11:58:27.460Z,24.02
2018-11-25T12:00:57.746Z,23.49
2018-11-25T12:03:27.214Z,24.01
2018-11-25T12:05:57.342Z,23.34
2018-11-25T12:08:27.387Z,22.99
2018-11-25T12:10:56.931Z,21.25
2018-11-25T12:13:26.871Z,19.39
2018-11-25T12:15:57.081Z,17.58
2018-11-25T12:20:56.309Z,15.88
2018-11-25T12:23:27.525Z,15.61
2018-11-25T12:25:58.415Z,15.78
2018-11-25T12:28:28.667Z,16.32
2018-11-25T12:30:58.663Z,15.59
2018-11-25T12:33:29.826Z,16.37
2018-11-25T12:35:59.885Z,16.33
2018-11-25T12:38:29.834Z,16.30
2018-11-25T12:40:59.827Z,16.11
2018-11-25T12:43:30.246Z,16.45
2018-11-25T12:46:00.892Z,17.77
2018-11-25T12:48:30.653Z,18.53
2018-11-25T12:51:00.417Z,17.81
2018-11-25T12:53:30.161Z,17.69
2018-11-25T12:56:00.295Z,18.03
2018-11-25T12:58:31.818Z,17.30
2018-11-25T13:01:01.720Z,16.29
2018-11-25T13:03:32.095Z,15.03
2018-11-25T13:06:02.246Z,14.83
2018-11-25T13:08:32.198Z,14.07
2018-11-25T13:11:02.940Z,14.46
2018-11-25T13:13:32.667Z,14.31
2018-11-25T13:16:03.155Z,14.46
2018-11-25T13:18:33.670Z,14.91
2018-11-25T13:21:03.960Z,15.82
2018-11-25T13:23:34.537Z,16.33
2018-11-25T13:26:06.970Z,16.68
2018-11-25T13:28:37.657Z,16.38
2018-11-25T13:31:07.951Z,16.16
2018-11-25T13:33:38.058Z,15.76
2018-11-25T13:36:10.695Z,15.22
2018-11-25T13:38:40.427Z,14.66
2018-11-25T13:41:10.406Z,13.66
2018-11-25T13:43:40.921Z,13.60
2018-11-25T13:46:11.579Z,13.42
2018-11-25T13:48:42.385Z,13.49
2018-11-25T13:51:13.287Z,13.44
2018-11-25T13:53:43.641Z,13.39
2018-11-25T13:56:13.830Z,12.96
2018-11-25T13:58:45.257Z,12.70
2018-11-25T14:01:15.258Z,12.69
2018-11-25T14:03:45.280Z,12.43
2018-11-25T14:06:15.786Z,12.44
2018-11-25T14:08:49.555Z,12.27
2018-11-25T14:11:18.928Z,12.10
2018-11-25T14:13:49.142Z,11.60
2018-11-25T14:16:20.258Z,11.44
2018-11-25T14:18:49.963Z,11.18
2018-11-25T14:21:19.627Z,11.15
2018-11-25T14:23:49.023Z,10.91
2018-11-25T14:26:23.496Z,10.72
2018-11-25T14:28:53.311Z,10.45
2018-11-25T14:31:23.597Z,10.17
2018-11-25T14:33:53.561Z,10.12
2018-11-25T14:36:23.802Z,9.79
2018-11-25T14:38:53.511Z,9.91
2018-11-25T14:41:23.051Z,9.68
2018-11-25T14:43:53.256Z,9.55
2018-11-25T14:46:23.021Z,9.49
2018-11-25T14:48:52.897Z,9.40
2018-11-25T14:51:22.553Z,9.17
2018-11-25T14:53:52.659Z,9.06
2018-11-25T14:56:22.351Z,8.86
2018-11-25T14:58:52.698Z,8.62
2018-11-25T15:01:22.299Z,8.43
2018-11-25T15:03:53.431Z,8.41
2018-11-25T15:06:29.283Z,8.12
2018-11-25T15:08:54.456Z,8.09
2018-11-25T15:11:24.506Z,7.99
2018-11-25T15:13:54.060Z,7.87
2018-11-25T15:16:23.851Z,7.65
2018-11-25T15:18:53.418Z,7.37
2018-11-25T15:21:23.272Z,7.19
2018-11-25T15:23:53.592Z,7.05
2018-11-25T15:26:23.777Z,6.95
2018-11-25T15:28:53.291Z,6.92
2018-11-25T15:31:23.218Z,6.76
2018-11-25T15:33:52.971Z,6.55
2018-11-25T15:36:22.625Z,6.45
2018-11-25T15:38:52.020Z,6.26
2018-11-25T15:41:21.913Z,6.31
2018-11-25T15:43:52.299Z,6.19
2018-11-25T15:46:22.130Z,6.03
2018-11-25T15:48:51.732Z,5.96
2018-11-25T15:51:21.728Z,5.76
2018-11-25T15:53:51.820Z,5.73
2018-11-25T15:56:21.369Z,5.74
2018-11-25T15:58:52.344Z,5.57
2018-11-25T16:01:21.798Z,5.48
2018-11-25T16:03:51.662Z,5.44
2018-11-25T16:06:26.686Z,5.43
2018-11-25T16:08:56.232Z,5.15
2018-11-25T16:11:27.340Z,5.24
2018-11-25T16:13:57.781Z,5.21
2018-11-25T16:16:27.989Z,5.13
2018-11-25T16:19:01.503Z,4.88
2018-11-25T16:21:31.729Z,4.92
2018-11-25T16:24:02.371Z,4.79
2018-11-25T16:26:34.687Z,4.76
2018-11-25T16:29:15.405Z,4.80
2018-11-25T16:31:45.485Z,4.78
2018-11-25T16:34:15.808Z,4.67
2018-11-25T16:36:45.974Z,4.60
2018-11-25T16:39:16.286Z,4.52
2018-11-25T16:41:46.256Z,4.47
2018-11-25T16:44:17.324Z,4.53
2018-11-25T16:46:46.724Z,4.60
2018-11-25T16:49:17.934Z,4.67
2018-11-25T16:51:49.221Z,4.78
2018-11-25T16:54:20.267Z,4.85
2018-11-25T16:56:50.936Z,4.89
2018-11-25T16:59:28.628Z,4.97
2018-11-25T17:01:58.547Z,5.01
2018-11-25T17:04:28.784Z,5.01
2018-11-25T17:06:58.927Z,5.01
2018-11-25T17:09:29.242Z,5.07
2018-11-25T17:11:59.303Z,5.12
2018-11-25T17:14:33.945Z,5.14
2018-11-25T17:17:00.888Z,5.14
2018-11-25T17:19:31.676Z,5.17
2018-11-25T17:22:03.391Z,5.22
2018-11-25T17:24:34.251Z,5.23
2018-11-25T17:27:04.600Z,5.19
2018-11-25T17:29:34.577Z,5.18
2018-11-25T17:32:05.328Z,5.12
2018-11-25T17:34:36.073Z,5.14
2018-11-25T17:37:07.754Z,5.16
2018-11-25T17:39:40.173Z,5.21
2018-11-25T17:42:12.058Z,5.19
2018-11-25T17:44:42.168Z,5.21
2018-11-25T17:47:12.387Z,5.27
2018-11-25T17:49:42.991Z,5.26
2018-11-25T17:52:14.251Z,5.21
2018-11-25T17:54:44.398Z,5.18
2018-11-25T17:57:14.938Z,5.20
2018-11-25T17:59:46.437Z,5.19
2018-11-25T18:02:16.992Z,5.23
2018-11-25T18:04:47.349Z,5.24
2018-11-25T18:07:17.694Z,5.26
2018-11-25T18:09:47.881Z,5.28
2018-11-25T18:12:17.757Z,5.21
2018-11-25T18:14:48.172Z,5.18
2018-11-25T18:17:18.929Z,5.16
2018-11-25T18:19:49.342Z,5.13
2018-11-25T18:22:24.208Z,5.16
2018-11-25T18:24:54.796Z,5.17
2018-11-25T18:27:25.363Z,5.19
2018-11-25T18:29:55.997Z,5.21
2018-11-25T18:32:28.273Z,5.21
2018-11-25T18:34:58.395Z,5.22
2018-11-25T18:37:28.714Z,5.21
2018-11-25T18:39:59.402Z,5.24
2018-11-25T18:42:29.662Z,5.26
2018-11-25T18:44:59.964Z,5.27
2018-11-25T18:47:30.168Z,5.30
2018-11-25T18:50:00.408Z,5.33
2018-11-25T18:52:31.674Z,5.34
2018-11-25T18:55:00.292Z,5.34
2018-11-25T18:57:31.325Z,5.34
2018-11-25T19:00:02.846Z,5.37
2018-11-25T19:02:41.564Z,5.39
2018-11-25T19:05:13.542Z,5.36
2018-11-25T19:07:43.760Z,5.37
2018-11-25T19:10:17.785Z,5.39
2018-11-25T19:12:48.934Z,5.40
2018-11-25T19:15:23.273Z,5.41
2018-11-25T19:17:53.579Z,5.42
2018-11-25T19:20:26.798Z,5.43
2018-11-25T19:22:57.702Z,5.39
2018-11-25T19:25:28.250Z,5.42
2018-11-25T19:27:58.851Z,5.46
2018-11-25T19:30:29.494Z,5.48
2018-11-25T19:32:59.517Z,5.48
2018-11-25T19:35:30.398Z,5.48
2018-11-25T19:38:01.984Z,5.51
2018-11-25T19:40:31.995Z,5.52
2018-11-25T19:43:03.160Z,5.52
2018-11-25T19:45:33.538Z,5.53
2018-11-25T19:48:03.846Z,5.51
2018-11-25T19:50:35.522Z,5.55
2018-11-25T19:53:07.738Z,5.56
2018-11-25T19:55:37.916Z,5.55
2018-11-25T19:58:09.039Z,5.57
2018-11-25T20:00:39.438Z,5.57
2018-11-25T20:03:11.297Z,5.56
2018-11-25T20:05:42.852Z,5.58
2018-11-25T20:08:13.094Z,5.58
2018-11-25T20:10:43.159Z,5.56
2018-11-25T20:13:14.052Z,5.58
2018-11-25T20:15:44.488Z,5.58
2018-11-25T20:18:14.427Z,5.51
2018-11-25T20:20:48.438Z,5.50
2018-11-25T20:23:17.970Z,5.51
2018-11-25T20:25:48.729Z,5.53
2018-11-25T20:28:18.868Z,5.53
2018-11-25T20:30:48.744Z,5.57
2018-11-25T20:33:23.969Z,5.55
2018-11-25T20:35:53.958Z,5.52
2018-11-25T20:38:29.717Z,5.55
2018-11-25T20:40:59.654Z,5.57
2018-11-25T20:43:30.184Z,5.55
2018-11-25T20:46:05.658Z,5.57
2018-11-25T20:48:35.248Z,5.62
2018-11-25T20:51:05.372Z,5.60
2018-11-25T20:53:40.234Z,5.60
2018-11-25T20:56:09.871Z,5.62
2018-11-25T20:58:40.123Z,5.64
2018-11-25T21:01:10.110Z,5.61
2018-11-25T21:03:39.560Z,5.63
2018-11-25T21:06:09.743Z,5.62
2018-11-25T21:08:39.475Z,5.60
2018-11-25T21:11:09.155Z,5.61
2018-11-25T21:13:39.207Z,5.60
2018-11-25T21:16:08.535Z,5.57
2018-11-25T21:18:38.859Z,5.55
2018-11-25T21:21:09.019Z,5.60
2018-11-25T21:23:38.992Z,5.57
2018-11-25T21:26:09.407Z,5.57
2018-11-25T21:28:39.819Z,5.53
2018-11-25T21:31:15.683Z,5.56
2018-11-25T21:33:45.679Z,5.55
2018-11-25T21:36:15.096Z,5.54
2018-11-25T21:38:45.994Z,5.51
2018-11-25T21:41:16.367Z,5.49
2018-11-25T21:43:45.995Z,5.51
2018-11-25T21:46:15.860Z,5.54
2018-11-25T21:48:45.537Z,5.51
2018-11-25T21:51:15.188Z,5.53
2018-11-25T21:53:44.565Z,5.52
2018-11-25T21:56:14.540Z,5.53
2018-11-25T21:58:44.678Z,5.51
2018-11-25T22:01:14.952Z,5.47
2018-11-25T22:03:45.174Z,5.47
2018-11-25T22:06:14.628Z,5.47
2018-11-25T22:08:47.077Z,5.46
2018-11-25T22:11:16.778Z,5.44
2018-11-25T22:13:46.068Z,5.47
2018-11-25T22:16:16.230Z,5.48
2018-11-25T22:18:45.616Z,5.46
2018-11-25T22:21:15.514Z,5.45
2018-11-25T22:23:44.917Z,5.45
2018-11-25T22:26:15.415Z,5.43
2018-11-25T22:28:45.417Z,5.41
2018-11-25T22:31:15.489Z,5.42
2018-11-25T22:33:44.877Z,5.38
2018-11-25T22:36:14.883Z,5.39
2018-11-25T22:38:44.275Z,5.41
2018-11-25T22:41:13.871Z,5.39
2018-11-25T22:43:43.399Z,5.41
2018-11-25T22:46:12.749Z,5.37
2018-11-25T22:48:42.313Z,5.39
2018-11-25T22:51:12.049Z,5.40
2018-11-25T22:53:41.992Z,5.39
2018-11-25T22:56:11.700Z,5.36
2018-11-25T22:58:42.653Z,5.36
2018-11-25T23:01:12.170Z,5.39
2018-11-25T23:03:43.328Z,5.37
2018-11-25T23:06:24.042Z,5.36
2018-11-25T23:08:53.360Z,5.35
2018-11-25T23:11:23.124Z,5.36
2018-11-25T23:13:52.560Z,5.35
2018-11-25T23:16:23.006Z,5.34
2018-11-25T23:18:52.344Z,5.32
2018-11-25T23:21:22.239Z,5.35
2018-11-25T23:23:51.480Z,5.34
2018-11-25T23:26:21.558Z,5.34
2018-11-25T23:28:50.899Z,5.34
2018-11-25T23:31:20.213Z,5.33
2018-11-25T23:33:49.640Z,5.29
2018-11-25T23:36:19.359Z,5.25
2018-11-25T23:38:49.572Z,5.26
2018-11-25T23:41:19.629Z,5.31
2018-11-25T23:43:49.077Z,5.23
2018-11-25T23:46:18.434Z,5.26
2018-11-25T23:48:48.480Z,5.26
2018-11-25T23:51:17.970Z,5.24
2018-11-25T23:53:48.039Z,5.22
2018-11-25T23:56:17.648Z,5.20
2018-11-25T23:58:47.548Z,5.21
